Time;durP1;ratioP1;P1;durP2;ratioP2;P2;SDS_P1;SDS_P2;PMS_P1;PMS_P2;Temp;Humidity;BMP_temperature;BMP_pressure;BME280_temperature;BME280_humidity;BME280_pressure;Samples;Min_cycle;Max_cycle;Signal;HPM_P1;HPM_P2
2022/01/14 00:01:50;;;;;;;18.25;8.93;;;;;;;1.96;82.62;101196.94;4478904;31;35151;-77
2022/01/14 00:04:37;;;;;;;16.70;8.55;;;;;;;1.92;82.51;101201.12;4476036;31;35152;-77
2022/01/14 00:07:26;;;;;;;23.33;8.85;;;;;;;1.60;83.86;101198.34;4457194;31;35317;-76
2022/01/14 00:10:12;;;;;;;18.87;9.07;;;;;;;1.55;84.34;101192.75;4480952;31;36004;-76
2022/01/14 00:13:08;;;;;;;20.95;9.00;;;;;;;1.54;84.51;101197.34;4480085;31;34129;-76
2022/01/14 00:15:54;;;;;;;17.60;9.45;;;;;;;1.51;84.93;101195.06;4480455;31;35022;-76
2022/01/14 00:18:40;;;;;;;18.85;9.02;;;;;;;1.54;84.91;101197.34;4480928;31;34277;-76
2022/01/14 00:21:28;;;;;;;18.12;8.68;;;;;;;1.56;85.37;101194.41;4480125;31;34972;-77
2022/01/14 00:33:18;;;;;;;19.20;7.90;;;;;;;1.67;85.96;101182.94;4484343;31;36537;-77
2022/01/14 00:36:04;;;;;;;20.52;8.82;;;;;;;1.66;85.96;101178.59;4480096;31;34556;-77
2022/01/14 00:38:50;;;;;;;18.50;7.87;;;;;;;1.94;83.87;101170.13;4479513;31;33862;-77
2022/01/14 00:41:37;;;;;;;18.27;8.48;;;;;;;1.69;84.75;101174.62;4484684;31;35524;-77
2022/01/14 00:44:24;;;;;;;19.90;7.57;;;;;;;1.58;85.76;101176.13;4481068;31;35874;-77
2022/01/14 00:47:10;;;;;;;17.37;7.97;;;;;;;1.82;84.23;101177.25;4482776;31;34612;-76
2022/01/14 00:49:56;;;;;;;17.05;7.40;;;;;;;1.98;83.46;101175.94;4481587;31;34356;-77
2022/01/14 00:52:44;;;;;;;19.35;8.75;;;;;;;1.97;83.34;101163.47;4478846;31;34544;-77
2022/01/14 00:55:44;;;;;;;17.95;7.68;;;;;;;1.45;85.74;101163.50;4479592;31;34647;-77
2022/01/14 01:01:36;;;;;;;16.30;7.45;;;;;;;1.77;83.95;101152.75;4488917;31;33710;-77
2022/01/14 01:04:29;;;;;;;16.00;7.80;;;;;;;1.45;85.68;101159.94;4482640;31;34515;-78
2022/01/14 01:07:17;;;;;;;18.27;8.07;;;;;;;1.09;87.13;101153.22;4475193;31;34614;-78
2022/01/14 01:10:03;;;;;;;18.05;8.52;;;;;;;1.33;86.94;101152.50;4484862;31;34092;-77
2022/01/14 01:15:36;;;;;;;19.42;7.80;;;;;;;1.13;87.03;101154.44;4484214;31;34638;-78
2022/01/14 01:18:22;;;;;;;18.87;7.97;;;;;;;1.46;85.88;101156.22;4482083;31;34921;-78
2022/01/14 01:21:09;;;;;;;18.37;7.95;;;;;;;0.84;88.06;101161.16;4481667;31;33468;-78
2022/01/14 01:23:55;;;;;;;19.35;8.05;;;;;;;1.13;86.27;101152.56;4482995;31;35102;-77
2022/01/14 01:26:43;;;;;;;17.85;7.97;;;;;;;0.99;86.93;101156.34;4480115;31;34601;-77
2022/01/14 01:29:45;;;;;;;21.20;9.95;;;;;;;1.01;86.68;101165.06;4476847;31;35016;-77
2022/01/14 01:32:32;;;;;;;18.42;9.27;;;;;;;0.61;89.07;101156.19;4482267;31;34524;-77
2022/01/14 01:35:18;;;;;;;21.77;8.48;;;;;;;0.66;88.91;101151.00;4484078;31;34774;-77
2022/01/14 01:38:05;;;;;;;19.05;7.75;;;;;;;0.79;88.52;101148.28;4474751;31;34311;-77
2022/01/14 01:40:51;;;;;;;18.85;8.43;;;;;;;0.97;87.45;101142.25;4482156;31;35982;-78
2022/01/14 01:43:39;;;;;;;18.08;8.40;;;;;;;0.62;88.87;101139.78;4481861;31;35347;-78
2022/01/14 01:46:25;;;;;;;21.27;10.55;;;;;;;0.38;89.96;101133.16;4466831;31;33185;-78
2022/01/14 01:49:12;;;;;;;22.05;9.85;;;;;;;0.19;90.53;101128.56;4477367;31;34640;-77
2022/01/14 01:51:59;;;;;;;22.45;10.50;;;;;;;0.25;90.69;101126.91;4481201;31;35586;-77
2022/01/14 01:54:45;;;;;;;22.62;9.60;;;;;;;0.17;91.04;101126.09;4466830;31;34946;-77
2022/01/14 01:57:32;;;;;;;20.00;9.15;;;;;;;0.22;90.52;101129.00;4484736;31;34798;-77
2022/01/14 02:00:21;;;;;;;19.40;8.73;;;;;;;0.18;90.73;101129.63;4483612;31;34524;-78
2022/01/14 02:03:12;;;;;;;23.90;9.90;;;;;;;0.04;91.54;101125.25;4495430;31;34687;-77
2022/01/14 02:05:58;;;;;;;21.27;8.75;;;;;;;0.17;90.78;101117.16;4465199;31;34032;-77
2022/01/14 02:08:45;;;;;;;19.45;9.25;;;;;;;0.29;90.23;101118.22;4483854;31;34064;-77
2022/01/14 02:11:31;;;;;;;20.92;9.80;;;;;;;0.48;88.82;101111.16;4467196;31;35538;-78
2022/01/14 02:17:29;;;;;;;24.08;9.35;;;;;;;0.45;88.48;101108.88;4484768;31;33981;-78
2022/01/14 02:23:22;;;;;;;21.73;10.18;;;;;;;0.32;90.22;101090.84;4477882;31;34632;-78
2022/01/14 02:26:11;;;;;;;18.62;9.07;;;;;;;0.10;90.59;101081.31;4483733;31;35831;-78
2022/01/14 02:28:58;;;;;;;20.92;9.20;;;;;;;0.12;90.89;101082.75;4476247;31;35033;-78
2022/01/14 02:31:45;;;;;;;20.67;9.38;;;;;;;0.22;90.98;101079.62;4496008;31;35086;-77
2022/01/14 02:34:32;;;;;;;18.35;8.73;;;;;;;0.49;88.46;101068.84;4481532;31;34599;-78
2022/01/14 02:37:20;;;;;;;23.85;9.68;;;;;;;0.19;91.44;101077.34;4466210;31;35587;-78
2022/01/14 02:40:06;;;;;;;21.15;9.40;;;;;;;0.34;90.62;101072.59;4482557;31;34563;-78
2022/01/14 02:42:55;;;;;;;22.58;9.32;;;;;;;0.26;90.53;101074.66;4479133;31;33619;-78
2022/01/14 02:45:47;;;;;;;26.55;10.68;;;;;;;0.09;92.55;101068.88;4484543;31;34567;-78
2022/01/14 02:48:34;;;;;;;25.02;10.05;;;;;;;0.14;92.35;101069.91;4482688;31;34950;-78
2022/01/14 02:51:22;;;;;;;20.77;9.15;;;;;;;0.26;92.23;101055.78;4495618;31;35466;-77
2022/01/14 02:54:15;;;;;;;23.15;9.60;;;;;;;0.15;92.79;101058.09;4479905;31;34943;-77
2022/01/14 02:57:02;;;;;;;24.08;9.00;;;;;;;0.13;92.94;101059.31;4484380;31;34678;-76
2022/01/14 02:59:49;;;;;;;19.02;8.40;;;;;;;0.30;92.42;101044.38;4463267;31;35920;-76
2022/01/14 03:02:36;;;;;;;20.45;8.43;;;;;;;0.12;92.97;101052.28;4480608;31;34387;-77
2022/01/14 03:05:22;;;;;;;18.90;9.30;;;;;;;0.49;92.04;101039.19;4478377;31;33801;-76
2022/01/14 03:08:11;;;;;;;19.35;8.60;;;;;;;1.01;88.88;101034.69;4480631;31;34726;-76
2022/01/14 03:11:05;;;;;;;23.92;9.50;;;;;;;0.12;93.22;101036.13;4473577;31;34574;-76
2022/01/14 03:13:53;;;;;;;27.67;9.93;;;;;;;-0.01;93.52;101034.22;4480194;31;34255;-77
2022/01/14 03:16:42;;;;;;;23.50;8.90;;;;;;;0.51;92.16;101029.00;4480807;31;34198;-76
2022/01/14 03:19:29;;;;;;;21.23;9.18;;;;;;;0.59;90.91;101028.78;4484317;31;34540;-77
2022/01/14 03:22:22;;;;;;;25.55;10.40;;;;;;;0.30;91.52;101028.22;4479920;31;34998;-77
2022/01/14 03:28:16;;;;;;;22.40;10.45;;;;;;;-0.16;93.89;101017.44;4480494;31;34245;-76
2022/01/14 03:31:03;;;;;;;23.25;11.00;;;;;;;0.31;92.29;101013.69;4465166;31;33466;-75
2022/01/14 03:33:49;;;;;;;23.75;9.82;;;;;;;0.19;92.92;101009.97;4480366;31;35994;-76
2022/01/14 03:36:35;;;;;;;28.10;9.88;;;;;;;-0.06;94.02;101007.94;4488778;31;35474;-76
2022/01/14 03:39:22;;;;;;;27.45;10.85;;;;;;;-0.04;95.27;101010.41;4490906;31;34066;-76
2022/01/14 03:42:09;;;;;;;23.62;10.75;;;;;;;-0.19;95.78;101013.31;4488630;31;35497;-76
2022/01/14 03:44:55;;;;;;;21.52;9.27;;;;;;;0.02;93.65;101003.34;4490652;31;36087;-76
2022/01/14 03:47:42;;;;;;;23.58;10.20;;;;;;;0.29;93.88;100998.78;4480707;31;34309;-75
2022/01/14 03:50:28;;;;;;;20.77;9.27;;;;;;;0.36;93.67;100988.78;4494462;31;33875;-76
2022/01/14 03:53:15;;;;;;;22.25;9.88;;;;;;;0.30;93.71;100985.06;4488127;31;35639;-75
2022/01/14 03:56:01;;;;;;;21.85;10.07;;;;;;;0.11;95.22;100975.16;4492929;31;35041;-75
2022/01/14 03:58:57;;;;;;;19.80;8.23;;;;;;;0.17;95.30;100974.31;4490762;31;34668;-76
2022/01/14 04:01:46;;;;;;;27.67;11.38;;;;;;;0.27;94.64;100971.19;4478241;31;33832;-77
2022/01/14 04:04:32;;;;;;;26.05;10.55;;;;;;;0.13;95.01;100971.19;4483159;31;37335;-75
2022/01/14 04:07:19;;;;;;;20.65;9.02;;;;;;;0.02;95.88;100965.63;4483538;31;34870;-76
2022/01/14 04:10:10;;;;;;;19.62;9.20;;;;;;;0.29;94.82;100977.22;4480338;31;34561;-76
2022/01/14 04:15:46;;;;;;;22.25;9.43;;;;;;;0.31;94.99;100977.81;4477109;31;34621;-76
2022/01/14 04:18:33;;;;;;;22.05;9.05;;;;;;;0.62;94.40;100969.00;4484599;31;36511;-77
2022/01/14 04:21:20;;;;;;;25.17;10.40;;;;;;;0.82;93.06;100971.63;4492884;31;34595;-76
2022/01/14 04:24:06;;;;;;;23.42;8.88;;;;;;;0.48;94.14;100964.69;4494330;31;34232;-75
2022/01/14 04:26:52;;;;;;;22.92;8.80;;;;;;;0.74;93.42;100953.84;4495715;31;35875;-75
2022/01/14 04:29:38;;;;;;;19.37;9.25;;;;;;;0.74;92.73;100943.03;4479980;31;33415;-75
2022/01/14 04:32:25;;;;;;;21.70;9.13;;;;;;;0.89;92.28;100943.59;4482333;31;35465;-76
2022/01/14 04:35:11;;;;;;;16.35;8.75;;;;;;;1.13;91.06;100946.56;4474675;31;35085;-75
2022/01/14 04:37:58;;;;;;;18.45;8.43;;;;;;;0.86;91.56;100944.03;4494513;31;35208;-76
2022/01/14 04:40:45;;;;;;;23.52;10.27;;;;;;;1.04;91.43;100937.06;4483606;31;34932;-77
2022/01/14 04:43:31;;;;;;;21.70;9.35;;;;;;;0.75;92.09;100931.19;4481665;31;34835;-75
2022/01/14 04:49:13;;;;;;;20.70;9.13;;;;;;;0.92;92.22;100944.22;4476628;31;33592;-76
2022/01/14 04:52:00;;;;;;;22.60;8.80;;;;;;;0.82;91.91;100934.69;4479379;31;35992;-76
2022/01/14 04:54:47;;;;;;;18.85;8.95;;;;;;;0.74;92.50;100944.88;4478780;31;31869;-76
2022/01/14 04:57:33;;;;;;;19.92;8.65;;;;;;;0.73;92.21;100930.59;4477765;31;33792;-76
2022/01/14 05:00:22;;;;;;;22.23;9.48;;;;;;;0.79;92.17;100916.22;4479822;31;34529;-76
2022/01/14 05:03:08;;;;;;;25.50;11.23;;;;;;;0.54;92.00;100915.31;4477907;31;34571;-75
2022/01/14 05:05:57;;;;;;;23.15;10.77;;;;;;;0.51;92.73;100910.34;4481366;31;34712;-76
2022/01/14 05:08:44;;;;;;;23.30;9.60;;;;;;;0.20;94.70;100914.59;4472417;31;34169;-75
2022/01/14 05:11:39;;;;;;;22.90;9.00;;;;;;;0.27;95.17;100926.19;4480667;31;35027;-75
2022/01/14 05:14:25;;;;;;;24.85;10.70;;;;;;;0.53;93.97;100917.19;4475681;31;35858;-76
2022/01/14 05:17:11;;;;;;;27.98;11.50;;;;;;;0.12;94.70;100912.13;4492631;31;34589;-76
2022/01/14 05:19:58;;;;;;;23.05;9.50;;;;;;;0.05;95.72;100922.09;4477876;31;34135;-76
2022/01/14 05:22:44;;;;;;;22.80;10.18;;;;;;;-0.07;96.05;100917.34;4481352;31;34687;-76
2022/01/14 05:25:30;;;;;;;24.55;11.20;;;;;;;-0.10;96.51;100906.97;4478238;31;34570;-76
2022/01/14 05:28:17;;;;;;;26.15;11.52;;;;;;;-0.17;97.18;100908.88;4472874;31;35273;-76
2022/01/14 05:31:03;;;;;;;18.35;8.35;;;;;;;-0.12;97.34;100911.75;4461904;31;34794;-76
2022/01/14 05:33:51;;;;;;;24.15;10.73;;;;;;;0.15;96.21;100917.09;4488565;31;34508;-76
2022/01/14 05:36:37;;;;;;;26.15;10.88;;;;;;;0.11;95.76;100922.06;4482476;31;34999;-77
2022/01/14 05:39:27;;;;;;;27.48;11.75;;;;;;;-0.08;96.91;100918.37;4475429;31;35367;-77
2022/01/14 05:42:13;;;;;;;23.25;11.02;;;;;;;-0.20;97.11;100920.03;4477281;31;32781;-78
2022/01/14 05:45:00;;;;;;;24.30;9.63;;;;;;;-0.20;97.35;100919.22;4490823;31;34241;-77
2022/01/14 05:47:47;;;;;;;25.12;10.35;;;;;;;0.41;94.07;100906.22;4478555;31;34924;-78
2022/01/14 05:50:33;;;;;;;22.30;9.77;;;;;;;0.36;94.81;100913.31;4457891;31;35053;-77
2022/01/14 05:53:19;;;;;;;24.25;10.05;;;;;;;0.25;95.08;100913.97;4469044;31;33976;-82
2022/01/14 05:56:06;;;;;;;25.92;11.57;;;;;;;-0.10;96.98;100915.06;4493409;31;34539;-82
2022/01/14 05:58:54;;;;;;;26.35;11.52;;;;;;;0.01;95.43;100918.16;4479232;31;35659;-81
2022/01/14 06:01:41;;;;;;;23.80;9.93;;;;;;;-0.19;96.75;100920.88;4486545;31;35379;-78
2022/01/14 06:04:28;;;;;;;26.05;10.82;;;;;;;-0.05;95.65;100923.34;4476835;31;33837;-78
2022/01/14 06:07:14;;;;;;;27.10;11.25;;;;;;;-0.20;96.35;100917.34;4492282;31;34733;-78
2022/01/14 06:10:00;;;;;;;28.75;11.05;;;;;;;-0.16;96.21;100915.09;4489662;31;35735;-77
2022/01/14 06:12:47;;;;;;;24.35;10.18;;;;;;;0.16;94.82;100907.97;4473779;31;35354;-78
2022/01/14 06:15:33;;;;;;;28.15;11.75;;;;;;;0.59;92.49;100905.53;4487807;31;33892;-82
2022/01/14 06:18:20;;;;;;;22.80;11.05;;;;;;;0.25;93.69;100906.69;4471904;31;34149;-75
2022/01/14 06:21:06;;;;;;;29.10;10.70;;;;;;;0.14;94.50;100899.25;4483342;31;36004;-77
2022/01/14 06:23:52;;;;;;;24.83;10.43;;;;;;;0.53;94.19;100897.47;4480504;31;34487;-77
2022/01/14 06:26:41;;;;;;;23.27;10.55;;;;;;;0.01;95.54;100893.91;4475665;31;35249;-77
2022/01/14 06:29:30;;;;;;;23.05;9.60;;;;;;;0.51;93.15;100881.50;4488401;31;34696;-80
2022/01/14 06:32:17;;;;;;;22.23;10.00;;;;;;;0.59;91.92;100885.81;4489399;31;35109;-78
2022/01/14 06:35:03;;;;;;;25.50;9.80;;;;;;;0.46;93.14;100892.13;4488561;31;35450;-78
2022/01/14 06:37:50;;;;;;;23.33;10.35;;;;;;;0.40;93.51;100888.41;4473160;31;35123;-79
2022/01/14 06:40:37;;;;;;;21.42;9.77;;;;;;;0.22;94.60;100896.34;4475835;31;34667;-80
2022/01/14 06:43:24;;;;;;;22.35;10.13;;;;;;;0.32;93.70;100891.34;4479226;31;34905;-78
2022/01/14 06:46:10;;;;;;;20.88;9.50;;;;;;;0.05;94.96;100889.75;4476325;31;34214;-77
2022/01/14 06:48:56;;;;;;;22.37;9.38;;;;;;;0.17;95.97;100882.66;4484341;31;34184;-78
2022/01/14 06:51:43;;;;;;;25.90;9.82;;;;;;;0.41;94.37;100881.13;4475212;31;35308;-74
2022/01/14 06:54:32;;;;;;;22.42;9.50;;;;;;;0.54;93.63;100893.72;4490481;31;35018;-75
2022/01/14 06:57:21;;;;;;;21.92;9.52;;;;;;;0.69;92.83;100878.13;4469034;31;34443;-80
2022/01/14 07:00:10;;;;;;;20.10;9.10;;;;;;;0.30;94.93;100874.53;4476849;31;34716;-79
2022/01/14 07:02:57;;;;;;;17.25;8.02;;;;;;;0.42;94.46;100863.91;4477968;31;34661;-76
2022/01/14 07:05:43;;;;;;;20.15;7.87;;;;;;;0.60;94.64;100880.22;4483122;31;34871;-78
2022/01/14 07:08:29;;;;;;;17.50;7.82;;;;;;;0.79;93.67;100874.94;4484911;31;34231;-76
2022/01/14 07:11:16;;;;;;;17.48;8.48;;;;;;;0.82;93.71;100879.91;4482745;31;32889;-76
2022/01/14 07:14:06;;;;;;;21.42;8.50;;;;;;;0.95;92.49;100871.72;4470728;31;34585;-75
2022/01/14 07:16:53;;;;;;;21.08;8.38;;;;;;;1.07;92.71;100866.47;4477478;31;35631;-75
2022/01/14 07:19:39;;;;;;;14.35;6.75;;;;;;;1.11;91.58;100865.81;4471452;31;34316;-76
2022/01/14 07:22:28;;;;;;;16.85;7.18;;;;;;;1.11;92.14;100868.53;4480687;31;33819;-76
2022/01/14 07:25:14;;;;;;;15.98;7.78;;;;;;;0.97;92.52;100856.16;4480082;31;34478;-81
2022/01/14 07:28:00;;;;;;;18.52;7.80;;;;;;;1.13;91.67;100860.19;4484844;31;35685;-80
2022/01/14 07:30:49;;;;;;;22.90;10.13;;;;;;;0.89;92.81;100849.12;4483876;31;34677;-80
2022/01/14 07:33:35;;;;;;;21.55;9.18;;;;;;;0.80;93.06;100858.53;4484821;31;34257;-79
2022/01/14 07:36:21;;;;;;;21.40;9.65;;;;;;;0.84;93.53;100856.22;4491073;31;33215;-77
2022/01/14 07:39:07;;;;;;;20.45;10.02;;;;;;;1.03;92.72;100843.66;4461298;31;35955;-76
2022/01/14 07:41:54;;;;;;;22.00;8.60;;;;;;;1.23;91.72;100849.72;4481097;31;34278;-78
2022/01/14 07:44:43;;;;;;;23.65;9.30;;;;;;;1.30;91.27;100844.28;4492077;31;32891;-76
2022/01/14 07:47:30;;;;;;;20.05;8.50;;;;;;;1.46;90.43;100853.72;4474404;31;34830;-78
2022/01/14 07:50:16;;;;;;;17.87;7.18;;;;;;;1.70;89.07;100860.94;4478012;31;35963;-75
2022/01/14 07:53:02;;;;;;;17.50;8.25;;;;;;;2.16;87.79;100858.81;4485385;31;34200;-76
2022/01/14 07:55:50;;;;;;;16.48;8.18;;;;;;;1.94;88.10;100861.16;4482959;31;34126;-78
2022/01/14 07:58:36;;;;;;;16.95;7.00;;;;;;;1.76;88.81;100865.47;4464163;31;35448;-80
2022/01/14 08:01:22;;;;;;;16.08;6.85;;;;;;;2.03;88.20;100860.63;4476517;31;35977;-74
2022/01/14 08:04:09;;;;;;;17.35;8.38;;;;;;;2.12;87.05;100857.63;4480776;31;35419;-74
2022/01/14 08:06:58;;;;;;;14.87;6.45;;;;;;;2.23;86.21;100867.69;4476364;31;34212;-78
2022/01/14 08:09:44;;;;;;;14.57;6.87;;;;;;;2.44;84.85;100852.88;4473764;31;34244;-79
2022/01/14 08:12:31;;;;;;;16.58;6.78;;;;;;;2.42;84.58;100863.06;4476183;31;34721;-80
2022/01/14 08:15:17;;;;;;;16.20;6.35;;;;;;;2.69;84.40;100858.16;4470634;31;34616;-78
2022/01/14 08:18:06;;;;;;;16.50;7.07;;;;;;;2.64;84.11;100847.19;4487755;31;34131;-81
2022/01/14 08:20:53;;;;;;;16.05;7.07;;;;;;;2.83;83.61;100853.41;4489606;31;35236;-83
2022/01/14 08:23:39;;;;;;;18.62;7.50;;;;;;;2.79;83.16;100844.91;4486354;31;36632;-80
2022/01/14 08:26:26;;;;;;;17.02;7.40;;;;;;;2.87;82.68;100843.75;4463220;31;34875;-80
2022/01/14 08:29:12;;;;;;;14.45;6.68;;;;;;;2.85;82.68;100835.88;4478121;31;34180;-83
2022/01/14 08:31:58;;;;;;;16.37;8.43;;;;;;;2.86;82.52;100836.69;4482345;31;35263;-81
2022/01/14 08:34:44;;;;;;;12.70;6.40;;;;;;;2.74;82.65;100841.25;4488606;31;34953;-75
2022/01/14 08:37:31;;;;;;;17.58;7.47;;;;;;;3.03;81.86;100837.69;4472866;31;34177;-84
2022/01/14 08:40:18;;;;;;;14.87;6.30;;;;;;;2.82;82.42;100833.63;4487040;31;33693;-82
2022/01/14 08:43:07;;;;;;;15.98;6.47;;;;;;;3.11;81.48;100834.63;4465864;31;34632;-83
2022/01/14 08:45:53;;;;;;;16.58;7.40;;;;;;;2.98;81.70;100842.94;4465024;31;34937;-82
2022/01/14 08:48:47;;;;;;;16.67;6.78;;;;;;;2.93;81.97;100819.31;4477144;31;36064;-82
2022/01/14 08:51:34;;;;;;;15.38;6.43;;;;;;;3.22;80.35;100818.66;4488830;31;33777;-81
2022/01/14 08:54:20;;;;;;;14.07;7.12;;;;;;;3.24;81.00;100817.34;4482995;31;35145;-81
2022/01/14 08:57:07;;;;;;;13.85;7.12;;;;;;;3.31;80.36;100811.84;4487107;31;36045;-75
2022/01/14 08:59:54;;;;;;;15.32;6.37;;;;;;;3.28;80.36;100805.00;4459003;31;35369;-77
2022/01/14 09:02:40;;;;;;;15.45;6.40;;;;;;;3.51;79.41;100825.84;4490100;31;33073;-81
2022/01/14 09:05:27;;;;;;;15.07;6.62;;;;;;;3.71;79.20;100808.41;4477003;31;34266;-76
2022/01/14 09:08:13;;;;;;;16.65;6.00;;;;;;;3.96;77.85;100811.69;4479831;31;34522;-74
2022/01/14 09:11:02;;;;;;;15.35;6.07;;;;;;;3.90;77.98;100812.66;4484504;31;35270;-80
2022/01/14 09:13:48;;;;;;;13.88;6.18;;;;;;;3.95;77.53;100807.31;4476437;31;34227;-80
2022/01/14 09:16:35;;;;;;;12.37;5.55;;;;;;;4.13;76.81;100809.06;4486899;31;34742;-85
2022/01/14 09:19:22;;;;;;;13.02;6.05;;;;;;;4.31;76.04;100796.37;4490076;31;34915;-88
2022/01/14 09:22:08;;;;;;;12.85;5.32;;;;;;;4.31;75.91;100799.91;4477637;31;35413;-84
2022/01/14 09:25:08;;;;;;;10.35;4.35;;;;;;;4.53;74.70;100804.69;4490769;31;34125;-86
2022/01/14 09:27:54;;;;;;;10.77;4.80;;;;;;;4.67;73.53;100804.16;4480667;31;34560;-78
2022/01/14 09:30:40;;;;;;;16.30;5.72;;;;;;;4.49;74.01;100785.34;4476646;31;34992;-77
2022/01/14 09:33:27;;;;;;;10.05;4.20;;;;;;;4.59;73.54;100768.44;4489301;31;34563;-82
2022/01/14 09:36:13;;;;;;;10.00;4.68;;;;;;;4.82;72.51;100784.59;4478727;31;35040;-75
2022/01/14 09:39:02;;;;;;;9.00;4.28;;;;;;;4.84;72.21;100771.59;4475364;31;34540;-76
2022/01/14 09:41:49;;;;;;;12.77;5.93;;;;;;;4.85;71.97;100762.37;4464121;31;35876;-78
2022/01/14 09:44:37;;;;;;;10.57;4.90;;;;;;;4.75;72.40;100756.75;4477582;31;35339;-75
2022/01/14 09:47:24;;;;;;;11.55;4.20;;;;;;;4.92;71.88;100752.19;4475145;31;35070;-76
2022/01/14 09:50:11;;;;;;;10.27;4.65;;;;;;;5.12;70.88;100759.00;4467007;31;34153;-75
2022/01/14 09:52:57;;;;;;;8.73;4.20;;;;;;;4.97;70.82;100752.25;4473909;31;36004;-76
2022/01/14 09:55:43;;;;;;;9.27;4.72;;;;;;;5.38;69.34;100754.81;4464887;31;34153;-77
2022/01/14 09:58:37;;;;;;;11.30;4.60;;;;;;;5.08;70.46;100760.56;4488487;31;34021;-78
2022/01/14 10:01:24;;;;;;;10.23;4.57;;;;;;;5.11;69.98;100743.78;4490120;31;35249;-76
2022/01/14 10:04:29;;;;;;;10.65;4.62;;;;;;;5.15;69.87;100745.75;4486170;31;36031;-76
2022/01/14 10:07:15;;;;;;;9.65;4.07;;;;;;;5.27;69.57;100740.22;4465005;31;34574;-78
2022/01/14 10:10:22;;;;;;;9.55;3.60;;;;;;;5.32;68.69;100739.47;4475081;31;34080;-76
2022/01/14 10:13:26;;;;;;;10.95;3.90;;;;;;;5.48;67.77;100732.37;4474140;31;35254;-74
2022/01/14 10:16:12;;;;;;;13.27;4.62;;;;;;;5.41;67.74;100713.53;4473029;31;35894;-77
2022/01/14 10:18:59;;;;;;;10.98;4.45;;;;;;;5.39;67.93;100723.81;4473425;31;34452;-77
2022/01/14 10:21:45;;;;;;;10.45;4.65;;;;;;;5.24;68.01;100710.03;4479342;31;34081;-75
2022/01/14 10:24:31;;;;;;;9.18;4.03;;;;;;;5.46;67.85;100707.31;4476648;31;33961;-76
2022/01/14 10:27:49;;;;;;;12.90;4.55;;;;;;;5.52;66.62;100701.72;4485941;31;36947;-76
2022/01/14 10:30:38;;;;;;;10.02;4.90;;;;;;;5.45;66.67;100694.81;4473357;31;33987;-78
2022/01/14 10:33:29;;;;;;;7.87;3.72;;;;;;;5.32;66.81;100690.56;4476254;31;34305;-76
2022/01/14 10:36:21;;;;;;;8.40;3.83;;;;;;;5.43;67.07;100688.81;4466014;31;34709;-77
2022/01/14 10:39:19;;;;;;;9.07;4.15;;;;;;;5.42;66.14;100687.97;4483724;31;34965;-77
2022/01/14 10:42:33;;;;;;;7.47;3.42;;;;;;;5.27;66.33;100715.78;4473495;31;34505;-78
2022/01/14 10:45:27;;;;;;;10.25;4.70;;;;;;;5.44;66.38;100693.19;4478714;31;35809;-79
2022/01/14 10:48:31;;;;;;;10.90;4.82;;;;;;;5.32;67.08;100680.53;4463782;31;34233;-76
2022/01/14 10:51:18;;;;;;;8.38;4.18;;;;;;;5.53;66.22;100648.19;4471244;31;34940;-77
2022/01/14 10:54:05;;;;;;;8.32;4.18;;;;;;;5.94;64.87;100668.53;4489670;31;35457;-76
2022/01/14 10:57:11;;;;;;;8.80;4.30;;;;;;;5.61;65.88;100661.31;4477785;31;34147;-74
2022/01/14 11:00:14;;;;;;;10.38;4.40;;;;;;;5.77;65.37;100649.53;4476080;31;35249;-75
2022/01/14 11:03:00;;;;;;;8.85;4.05;;;;;;;5.86;64.96;100648.03;4487555;31;34695;-75
2022/01/14 11:05:46;;;;;;;10.15;4.90;;;;;;;5.82;65.09;100663.19;4487521;31;34183;-76
2022/01/14 11:08:36;;;;;;;12.30;5.15;;;;;;;5.78;65.37;100656.63;4477103;31;34215;-75
2022/01/14 11:11:23;;;;;;;10.05;4.62;;;;;;;5.79;65.83;100666.44;4485309;31;35219;-74
2022/01/14 11:14:10;;;;;;;10.38;4.30;;;;;;;5.75;65.55;100659.88;4480051;31;34919;-75
2022/01/14 11:16:57;;;;;;;9.82;4.47;;;;;;;5.77;65.30;100646.81;4476105;31;35534;-77
2022/01/14 11:19:47;;;;;;;9.18;3.85;;;;;;;5.77;64.98;100640.56;4471974;31;34973;-75
2022/01/14 11:25:45;;;;;;;10.13;4.70;;;;;;;5.80;64.22;100650.94;4482695;31;33720;-74
2022/01/14 11:28:33;;;;;;;11.30;5.45;;;;;;;5.63;65.43;100638.25;4463811;31;34584;-76
2022/01/14 11:31:37;;;;;;;11.00;5.32;;;;;;;5.64;65.44;100628.19;4488685;31;35603;-76
2022/01/14 11:34:41;;;;;;;11.48;5.32;;;;;;;5.65;65.57;100629.81;4471253;31;34666;-78
2022/01/14 11:37:31;;;;;;;10.50;4.50;;;;;;;5.63;65.54;100629.25;4475215;31;35961;-78
2022/01/14 11:40:19;;;;;;;11.15;4.82;;;;;;;5.82;65.13;100625.12;4492034;31;34630;-76
2022/01/14 11:43:05;;;;;;;11.05;4.75;;;;;;;5.70;65.65;100616.28;4490164;31;34208;-79
2022/01/14 11:45:52;;;;;;;10.13;4.82;;;;;;;5.97;64.83;100610.88;4476798;31;33425;-76
2022/01/14 11:48:53;;;;;;;11.48;6.10;;;;;;;5.62;65.98;100600.44;4476413;31;35978;-80
2022/01/14 11:52:00;;;;;;;10.40;5.25;;;;;;;5.48;66.46;100612.75;4488193;31;34541;-78
2022/01/14 11:54:46;;;;;;;12.18;5.70;;;;;;;5.51;66.88;100604.09;4479188;31;35119;-82
2022/01/14 11:57:45;;;;;;;13.62;4.30;;;;;;;5.53;66.71;100599.25;4467244;31;34611;-79
2022/01/14 12:00:39;;;;;;;11.55;6.05;;;;;;;5.65;66.58;100608.06;4491631;31;35802;-79
2022/01/14 12:03:28;;;;;;;11.20;4.78;;;;;;;5.50;66.86;100607.91;4488270;31;35590;-78
2022/01/14 12:06:15;;;;;;;10.18;5.87;;;;;;;5.78;66.33;100594.09;4477136;31;34076;-80
2022/01/14 12:09:04;;;;;;;11.98;5.95;;;;;;;5.61;66.56;100574.31;4479271;31;34653;-79
2022/01/14 12:12:23;;;;;;;14.00;6.60;;;;;;;5.63;66.67;100583.03;4486127;31;35024;-80
2022/01/14 12:15:55;;;;;;;10.30;4.18;;;;;;;5.70;66.91;100585.56;4466945;31;34586;-78
2022/01/14 12:18:44;;;;;;;10.07;4.68;;;;;;;6.12;65.51;100564.00;4484380;31;34225;-80
2022/01/14 12:21:43;;;;;;;10.70;5.10;;;;;;;6.00;65.41;100571.47;4489347;31;34640;-79
2022/01/14 12:24:31;;;;;;;12.37;4.85;;;;;;;6.18;64.80;100565.66;4486597;31;35954;-79
2022/01/14 12:27:19;;;;;;;12.73;4.35;;;;;;;6.16;64.66;100554.22;4466191;31;34584;-78
2022/01/14 12:30:08;;;;;;;11.85;4.85;;;;;;;6.12;64.62;100561.25;4474468;31;34086;-81
2022/01/14 12:32:55;;;;;;;10.52;5.05;;;;;;;6.10;64.62;100549.81;4478774;31;33757;-78
2022/01/14 12:35:42;;;;;;;10.40;4.32;;;;;;;6.25;64.68;100554.56;4483270;31;35932;-81
2022/01/14 12:38:29;;;;;;;11.52;5.32;;;;;;;6.27;64.08;100560.56;4487407;31;35131;-80
2022/01/14 12:41:21;;;;;;;10.40;3.92;;;;;;;6.38;63.99;100553.31;4471420;31;34080;-77
2022/01/14 12:44:08;;;;;;;8.52;3.65;;;;;;;6.46;64.01;100559.09;4478074;31;34588;-80
2022/01/14 12:47:09;;;;;;;11.18;4.78;;;;;;;6.42;63.85;100587.91;4489290;31;35049;-77
2022/01/14 12:49:55;;;;;;;9.02;3.85;;;;;;;6.46;63.73;100580.88;4475978;31;33008;-78
2022/01/14 12:52:50;;;;;;;9.15;4.68;;;;;;;6.44;63.72;100582.22;4478181;31;35035;-78
2022/01/14 12:55:36;;;;;;;8.35;3.80;;;;;;;6.37;63.79;100566.06;4464995;31;34629;-78
2022/01/14 12:58:25;;;;;;;8.75;3.60;;;;;;;6.61;62.94;100560.28;4488482;31;35603;-80
2022/01/14 13:01:12;;;;;;;9.32;3.80;;;;;;;6.64;62.07;100560.56;4488017;31;35488;-79
2022/01/14 13:04:02;;;;;;;7.78;3.35;;;;;;;6.56;61.91;100574.66;4485972;31;33789;-78
2022/01/14 13:07:01;;;;;;;6.35;3.03;;;;;;;6.52;61.67;100532.72;4476252;31;35244;-78
2022/01/14 13:09:49;;;;;;;7.00;3.03;;;;;;;6.64;61.26;100552.41;4479149;31;33932;-76
2022/01/14 13:12:40;;;;;;;7.18;3.15;;;;;;;6.89;60.43;100565.34;4489043;31;34793;-78
2022/01/14 13:15:27;;;;;;;9.45;3.65;;;;;;;6.81;60.15;100565.84;4488466;31;35010;-76
2022/01/14 13:18:21;;;;;;;8.23;3.60;;;;;;;6.71;60.49;100550.25;4483084;31;34224;-79
2022/01/14 13:21:07;;;;;;;7.18;3.17;;;;;;;6.63;60.72;100537.16;4482134;31;36186;-79
2022/01/14 13:23:53;;;;;;;8.85;3.20;;;;;;;6.74;60.26;100548.91;4482848;31;34472;-77
2022/01/14 13:26:43;;;;;;;8.20;3.33;;;;;;;7.10;59.62;100552.66;4478562;31;33683;-78
2022/01/14 13:29:41;;;;;;;9.35;4.12;;;;;;;6.85;60.10;100545.16;4466097;31;34565;-79
2022/01/14 13:32:33;;;;;;;11.40;3.70;;;;;;;6.79;60.66;100542.69;4475279;31;35717;-79
2022/01/14 13:35:26;;;;;;;9.95;3.60;;;;;;;6.78;60.50;100541.06;4489606;31;35441;-79
2022/01/14 13:38:22;;;;;;;8.75;3.35;;;;;;;6.61;60.83;100549.37;4474638;31;34076;-77